createdAt,value
2019-04-11T00:00:59.666Z,0.00
2019-04-11T00:01:59.166Z,0.00
2019-04-11T00:02:59.133Z,0.00
2019-04-11T00:03:59.846Z,0.00
2019-04-11T00:04:59.072Z,0.00
2019-04-11T00:05:59.265Z,0.00
2019-04-11T00:07:00.175Z,0.00
2019-04-11T00:07:59.730Z,0.00
2019-04-11T00:08:58.948Z,0.00
2019-04-11T00:09:58.921Z,0.00
2019-04-11T00:10:59.617Z,0.00
2019-04-11T00:11:59.777Z,0.00
2019-04-11T00:12:59.121Z,0.00
2019-04-11T00:13:59.790Z,0.00
2019-04-11T00:14:58.759Z,0.00
2019-04-11T00:15:59.189Z,0.00
2019-04-11T00:16:58.697Z,0.00
2019-04-11T00:17:58.665Z,0.00
2019-04-11T00:18:58.896Z,0.00
2019-04-11T00:19:58.603Z,0.00
2019-04-11T00:20:58.570Z,0.00
2019-04-11T00:21:59.439Z,0.00
2019-04-11T00:22:59.649Z,0.00
2019-04-11T00:23:58.665Z,0.00
2019-04-11T00:24:58.930Z,0.00
2019-04-11T00:25:58.413Z,0.00
2019-04-11T00:26:58.380Z,0.00
2019-04-11T00:27:59.376Z,0.00
2019-04-11T00:28:58.393Z,0.00
2019-04-11T00:29:58.291Z,0.00
2019-04-11T00:30:58.805Z,0.00
2019-04-11T00:31:58.228Z,0.00
2019-04-11T00:32:58.196Z,0.00
2019-04-11T00:33:58.446Z,0.00
2019-04-11T00:34:58.135Z,0.00
2019-04-11T00:35:58.102Z,0.00
2019-04-11T00:36:58.897Z,0.00
2019-04-11T00:37:59.243Z,0.00
2019-04-11T00:38:58.007Z,0.00
2019-04-11T00:39:57.975Z,0.00
2019-04-11T00:40:57.944Z,0.00
2019-04-11T00:41:58.637Z,0.00
2019-04-11T00:42:58.885Z,0.00
2019-04-11T00:43:58.703Z,0.00
2019-04-11T00:44:59.016Z,0.00
2019-04-11T00:45:58.169Z,0.00
2019-04-11T00:46:58.507Z,0.00
2019-04-11T00:47:57.725Z,0.00
2019-04-11T00:48:57.769Z,0.00
2019-04-11T00:49:58.803Z,0.00
2019-04-11T00:50:57.628Z,0.00
2019-04-11T00:51:58.316Z,0.00
2019-04-11T00:52:58.013Z,0.00
2019-04-11T00:53:58.318Z,0.00
2019-04-11T00:54:57.505Z,0.00
2019-04-11T00:55:57.472Z,0.00
2019-04-11T00:56:57.443Z,0.00
2019-04-11T00:57:57.409Z,0.00
2019-04-11T00:58:58.308Z,0.00
2019-04-11T00:59:58.284Z,0.00
2019-04-11T01:00:57.575Z,0.00
2019-04-11T01:01:57.286Z,0.00
2019-04-11T01:02:57.941Z,0.00
2019-04-11T01:03:57.221Z,0.00
2019-04-11T01:04:57.195Z,0.00
2019-04-11T01:05:58.273Z,0.00
2019-04-11T01:06:57.136Z,0.00
2019-04-11T01:07:57.742Z,0.00
2019-04-11T01:08:57.067Z,0.00
2019-04-11T01:09:57.033Z,0.00
2019-04-11T01:10:57.393Z,0.00
2019-04-11T01:11:56.981Z,0.00
2019-04-11T01:12:56.942Z,0.00
2019-04-11T01:13:57.335Z,0.00
2019-04-11T01:14:57.375Z,0.00
2019-04-11T01:15:56.849Z,0.00
2019-04-11T01:16:57.010Z,0.00
2019-04-11T01:17:57.923Z,0.00
2019-04-11T01:18:56.754Z,0.00
2019-04-11T01:19:57.355Z,0.00
2019-04-11T01:20:56.710Z,0.00
2019-04-11T01:21:57.865Z,0.00
2019-04-11T01:22:56.630Z,0.00
2019-04-11T01:23:57.516Z,0.00
2019-04-11T01:24:57.780Z,0.00
2019-04-11T01:25:56.995Z,0.00
2019-04-11T01:26:57.366Z,0.00
2019-04-11T01:27:56.486Z,0.00
2019-04-11T01:28:56.438Z,0.00
2019-04-11T01:29:56.408Z,0.00
2019-04-11T01:30:57.533Z,0.00
2019-04-11T01:31:56.344Z,0.00
2019-04-11T01:32:56.952Z,0.00
2019-04-11T01:33:56.284Z,0.00
2019-04-11T01:34:57.152Z,0.00
2019-04-11T01:35:57.413Z,0.00
2019-04-11T01:36:56.188Z,0.00
2019-04-11T01:37:56.169Z,0.00
2019-04-11T01:38:56.918Z,0.00
2019-04-11T01:39:57.200Z,0.00
2019-04-11T01:40:56.187Z,0.00
2019-04-11T01:41:56.036Z,0.00
2019-04-11T01:42:55.999Z,0.00
2019-04-11T01:44:00.940Z,0.00
2019-04-11T01:44:56.924Z,0.00
2019-04-11T01:45:56.023Z,0.00
2019-04-11T01:46:56.305Z,0.00
2019-04-11T01:47:55.843Z,0.00
2019-04-11T01:48:55.810Z,0.00
2019-04-11T01:49:56.614Z,0.00
2019-04-11T01:50:56.950Z,0.00
2019-04-11T01:51:56.054Z,0.00
2019-04-11T01:52:55.685Z,0.00
2019-04-11T01:53:55.652Z,0.00
2019-04-11T01:54:56.400Z,0.00
2019-04-11T01:55:56.800Z,0.00
2019-04-11T01:56:55.807Z,0.00
2019-04-11T01:57:55.523Z,0.00
2019-04-11T01:58:55.492Z,0.00
2019-04-11T01:59:55.625Z,0.00
2019-04-11T02:00:56.658Z,0.00
2019-04-11T02:01:55.397Z,0.00
2019-04-11T02:02:55.367Z,0.00
2019-04-11T02:03:55.401Z,0.00
2019-04-11T02:04:56.419Z,0.00
2019-04-11T02:05:55.271Z,0.00
2019-04-11T02:06:56.239Z,0.00
2019-04-11T02:07:55.350Z,0.00
2019-04-11T02:08:55.628Z,0.00
2019-04-11T02:09:55.142Z,0.00
2019-04-11T02:10:55.111Z,0.00
2019-04-11T02:11:56.157Z,0.00
2019-04-11T02:12:55.305Z,0.00
2019-04-11T02:14:05.116Z,0.00
2019-04-11T02:14:55.575Z,0.00
2019-04-11T02:15:56.838Z,0.00
2019-04-11T02:16:54.923Z,0.00
2019-04-11T02:17:55.072Z,0.00
2019-04-11T02:18:56.067Z,0.00
2019-04-11T02:19:54.827Z,0.00
2019-04-11T02:20:55.731Z,0.00
2019-04-11T02:21:54.893Z,0.00
2019-04-11T02:22:55.014Z,0.00
2019-04-11T02:23:55.277Z,0.00
2019-04-11T02:24:54.668Z,0.00
2019-04-11T02:25:54.636Z,0.00
2019-04-11T02:26:54.652Z,0.00
2019-04-11T02:27:54.577Z,0.00
2019-04-11T02:28:55.212Z,0.00
2019-04-11T02:29:55.149Z,0.00
2019-04-11T02:30:56.262Z,0.00
2019-04-11T02:31:54.962Z,0.00
2019-04-11T02:32:55.959Z,0.00
2019-04-11T02:33:55.296Z,0.00
2019-04-11T02:34:57.130Z,0.00
2019-04-11T02:35:54.560Z,0.00
2019-04-11T02:36:56.417Z,0.00
2019-04-11T02:37:54.897Z,0.00
2019-04-11T02:38:57.567Z,0.00
2019-04-11T02:39:55.954Z,0.00
2019-04-11T02:40:55.062Z,0.00
2019-04-11T02:41:54.951Z,0.00
2019-04-11T02:42:54.911Z,0.00
2019-04-11T02:43:54.997Z,0.00
2019-04-11T02:45:09.253Z,0.00
2019-04-11T02:46:09.021Z,0.00
2019-04-11T02:47:01.750Z,0.00
2019-04-11T02:47:56.331Z,0.00
2019-04-11T02:48:54.529Z,0.00
2019-04-11T02:49:55.044Z,0.00
2019-04-11T02:50:54.279Z,0.00
2019-04-11T02:51:55.733Z,0.00
2019-04-11T02:52:54.033Z,0.00
2019-04-11T02:53:54.867Z,0.00
2019-04-11T02:54:54.526Z,0.00
2019-04-11T02:55:54.262Z,0.00
2019-04-11T02:56:54.790Z,0.00
2019-04-11T02:57:54.315Z,0.00
2019-04-11T02:58:54.573Z,0.00
2019-04-11T02:59:54.295Z,0.00
2019-04-11T03:00:55.405Z,0.00
2019-04-11T03:01:53.503Z,0.00
2019-04-11T03:02:53.469Z,0.00
2019-04-11T03:03:54.083Z,0.00
2019-04-11T03:04:55.390Z,0.00
2019-04-11T03:05:53.780Z,0.00
2019-04-11T03:06:53.358Z,0.00
2019-04-11T03:07:54.067Z,0.00
2019-04-11T03:08:54.889Z,0.00
2019-04-11T03:09:53.752Z,0.00
2019-04-11T03:10:53.775Z,0.00
2019-04-11T03:11:54.703Z,0.00
2019-04-11T03:12:54.457Z,0.00
2019-04-11T03:13:54.677Z,0.00
2019-04-11T03:15:12.628Z,0.00
2019-04-11T03:16:05.314Z,0.00
2019-04-11T03:17:02.510Z,0.00
2019-04-11T03:17:57.658Z,0.00
2019-04-11T03:19:10.428Z,0.00
2019-04-11T03:20:04.395Z,0.00
2019-04-11T03:20:56.926Z,0.00
2019-04-11T03:21:54.587Z,0.00
2019-04-11T03:22:57.340Z,0.00
2019-04-11T03:23:52.803Z,0.00
2019-04-11T03:24:53.484Z,0.00
2019-04-11T03:25:54.217Z,0.00
2019-04-11T03:26:54.964Z,0.00
2019-04-11T03:27:54.033Z,0.00
2019-04-11T03:28:56.536Z,0.00
2019-04-11T03:29:53.848Z,0.00
2019-04-11T03:31:17.964Z,0.00
2019-04-11T03:35:37.739Z,0.00
2019-04-11T03:36:59.932Z,0.00
2019-04-11T03:37:37.312Z,0.00
2019-04-11T03:38:15.293Z,0.00
2019-04-11T03:39:11.926Z,0.00
2019-04-11T03:40:13.100Z,0.00
2019-04-11T03:41:12.138Z,0.00
2019-04-11T03:42:11.118Z,0.00
2019-04-11T03:43:06.381Z,0.00
2019-04-11T03:44:00.344Z,0.00
2019-04-11T03:45:15.310Z,0.00
2019-04-11T03:46:11.240Z,0.00
2019-04-11T03:47:10.149Z,0.00
2019-04-11T03:48:06.087Z,0.00
2019-04-11T03:49:01.216Z,0.00
2019-04-11T03:50:00.312Z,0.00
2019-04-11T03:50:54.575Z,4.00
2019-04-11T03:51:52.991Z,4.00
2019-04-11T03:52:53.739Z,0.00
2019-04-11T03:53:53.431Z,4.00
2019-04-11T03:54:51.815Z,4.00
2019-04-11T03:55:51.780Z,4.00
2019-04-11T03:56:53.454Z,4.00
2019-04-11T03:57:53.644Z,4.00
2019-04-11T03:58:53.366Z,4.00
2019-04-11T03:59:52.058Z,4.00
2019-04-11T04:00:53.543Z,8.00
2019-04-11T04:01:51.603Z,12.00
2019-04-11T04:02:52.557Z,16.00
2019-04-11T04:03:53.435Z,16.00
2019-04-11T04:04:53.494Z,20.00
2019-04-11T04:05:52.861Z,24.00
2019-04-11T04:06:52.695Z,24.00
2019-04-11T04:07:52.466Z,28.00
2019-04-11T04:08:53.025Z,36.00
2019-04-11T04:09:53.621Z,40.00
2019-04-11T04:10:51.855Z,44.00
2019-04-11T04:11:51.399Z,52.00
2019-04-11T04:12:51.831Z,60.00
2019-04-11T04:13:51.772Z,72.00
2019-04-11T04:14:51.619Z,84.00
2019-04-11T04:15:59.977Z,92.00
2019-04-11T04:16:54.838Z,108.00
2019-04-11T04:17:52.047Z,120.00
2019-04-11T04:18:51.749Z,136.00
2019-04-11T04:19:51.808Z,152.00
2019-04-11T04:20:51.228Z,172.00
2019-04-11T04:21:51.162Z,188.00
2019-04-11T04:22:52.419Z,212.00
2019-04-11T04:23:51.902Z,236.00
2019-04-11T04:24:52.892Z,260.00
2019-04-11T04:25:51.676Z,288.00
2019-04-11T04:26:52.450Z,316.00
2019-04-11T04:27:51.300Z,344.00
2019-04-11T04:28:51.308Z,376.00
2019-04-11T04:29:55.004Z,408.00
2019-04-11T04:30:51.719Z,448.00
2019-04-11T04:31:50.921Z,492.00
2019-04-11T04:32:52.082Z,532.00
2019-04-11T04:33:51.409Z,576.00
2019-04-11T04:34:51.189Z,620.00
2019-04-11T04:35:51.759Z,668.00
2019-04-11T04:36:51.500Z,716.00
2019-04-11T04:37:51.719Z,776.00
2019-04-11T04:38:50.406Z,832.00
2019-04-11T04:40:12.122Z,888.00
2019-04-11T04:41:05.715Z,952.00
2019-04-11T04:41:58.999Z,1012.00
2019-04-11T04:42:53.289Z,1072.00
2019-04-11T04:43:50.670Z,1132.00
2019-04-11T04:44:50.982Z,1200.00
2019-04-11T04:46:08.746Z,1272.00
2019-04-11T04:47:00.134Z,1344.00
2019-04-11T04:47:56.886Z,1416.00
2019-04-11T04:48:51.500Z,1484.00
2019-04-11T04:49:50.055Z,1568.00
2019-04-11T04:50:52.336Z,1664.00
2019-04-11T04:51:51.135Z,1772.00
2019-04-11T04:52:51.597Z,1884.00
2019-04-11T04:53:50.313Z,2004.00
2019-04-11T04:54:49.934Z,2120.00
2019-04-11T04:55:50.671Z,2212.00
2019-04-11T04:56:50.309Z,2296.00
2019-04-11T04:57:51.083Z,2392.00
2019-04-11T04:58:50.798Z,2508.00
2019-04-11T04:59:49.853Z,2644.00
2019-04-11T05:00:51.970Z,2780.00
2019-04-11T05:01:50.868Z,2916.00
2019-04-11T05:02:50.336Z,3044.00
2019-04-11T05:03:50.945Z,3160.00
2019-04-11T05:04:49.671Z,3300.00
2019-04-11T05:05:51.068Z,3452.00
2019-04-11T05:06:50.830Z,3596.00
2019-04-11T05:07:49.786Z,3748.00
2019-04-11T05:08:49.459Z,3876.00
2019-04-11T05:09:50.367Z,3952.00
2019-04-11T05:10:49.379Z,4000.00
2019-04-11T05:11:50.690Z,4068.00
2019-04-11T05:12:49.315Z,4184.00
2019-04-11T05:13:51.766Z,4344.00
2019-04-11T05:14:49.863Z,4496.00
2019-04-11T05:16:02.403Z,4636.00
2019-04-11T05:16:50.424Z,4776.00
2019-04-11T05:17:49.237Z,4968.00
2019-04-11T05:18:49.123Z,5192.00
2019-04-11T05:19:49.091Z,5432.00
2019-04-11T05:20:49.069Z,5620.00
2019-04-11T05:21:49.877Z,5748.00
2019-04-11T05:22:49.276Z,5848.00
2019-04-11T05:23:50.014Z,5964.00
2019-04-11T05:24:48.930Z,6076.00
2019-04-11T05:25:48.898Z,6220.00
2019-04-11T05:26:50.215Z,6308.00
2019-04-11T05:27:49.667Z,6344.00
2019-04-11T05:28:48.892Z,6356.00
2019-04-11T05:29:49.470Z,6316.00
2019-04-11T05:30:49.075Z,6304.00
2019-04-11T05:31:49.193Z,6320.00
2019-04-11T05:32:49.316Z,6368.00
2019-04-11T05:33:49.721Z,6392.00
2019-04-11T05:34:49.043Z,6448.00
2019-04-11T05:35:48.581Z,6936.00
2019-04-11T05:36:49.820Z,8716.00
2019-04-11T05:37:48.517Z,9276.00
2019-04-11T05:38:48.685Z,9400.00
2019-04-11T05:39:48.454Z,9564.00
2019-04-11T05:40:48.428Z,9992.00
2019-04-11T05:41:49.817Z,10408.00
2019-04-11T05:42:53.400Z,10036.00
2019-04-11T05:43:49.306Z,9768.00
2019-04-11T05:44:49.677Z,9752.00
2019-04-11T05:45:52.228Z,10168.00
2019-04-11T05:46:55.795Z,10764.00
2019-04-11T05:47:51.664Z,10304.00
2019-04-11T05:48:48.180Z,10480.00
2019-04-11T05:49:48.149Z,11524.00
2019-04-11T05:50:51.078Z,11208.00
2019-04-11T05:51:49.307Z,10728.00
2019-04-11T05:52:48.290Z,10956.00
2019-04-11T05:53:50.038Z,11288.00
2019-04-11T05:54:49.759Z,12396.00
2019-04-11T05:55:47.988Z,12872.00
2019-04-11T05:56:52.041Z,12576.00
2019-04-11T05:57:47.928Z,12996.00
2019-04-11T05:58:47.902Z,13808.00
2019-04-11T05:59:50.946Z,13888.00
2019-04-11T06:00:48.931Z,13208.00
2019-04-11T06:01:48.789Z,12652.00
2019-04-11T06:02:49.145Z,13788.00
2019-04-11T06:03:49.218Z,13928.00
2019-04-11T06:04:51.934Z,14304.00
2019-04-11T06:05:47.704Z,15904.00
2019-04-11T06:06:47.677Z,17728.00
2019-04-11T06:07:50.182Z,17536.00
2019-04-11T06:08:48.249Z,16704.00
2019-04-11T06:09:48.206Z,16672.00
2019-04-11T06:10:48.409Z,16672.00
2019-04-11T06:11:48.243Z,15968.00
2019-04-11T06:12:47.517Z,15360.00
2019-04-11T06:13:47.491Z,16064.00
2019-04-11T06:14:47.467Z,18080.00
2019-04-11T06:15:47.438Z,19616.00
2019-04-11T06:16:52.014Z,19360.00
2019-04-11T06:17:48.198Z,18432.00
2019-04-11T06:18:48.127Z,18304.00
2019-04-11T06:19:48.004Z,18624.00
2019-04-11T06:20:47.310Z,19360.00
2019-04-11T06:21:48.402Z,19808.00
2019-04-11T06:22:47.705Z,20160.00
2019-04-11T06:23:47.757Z,19904.00
2019-04-11T06:24:48.204Z,20288.00
2019-04-11T06:25:47.228Z,21344.00
2019-04-11T06:26:47.153Z,21472.00
2019-04-11T06:27:47.415Z,21568.00
2019-04-11T06:28:47.338Z,22656.00
2019-04-11T06:29:47.368Z,24320.00
2019-04-11T06:30:47.054Z,25440.00
2019-04-11T06:31:47.501Z,25344.00
2019-04-11T06:32:47.823Z,23808.00
2019-04-11T06:33:47.016Z,22944.00
2019-04-11T06:34:46.993Z,24000.00
2019-04-11T06:35:46.923Z,25184.00
2019-04-11T06:36:48.184Z,25504.00
2019-04-11T06:37:46.872Z,26016.00
2019-04-11T06:38:47.216Z,26560.00
2019-04-11T06:39:47.375Z,26368.00
2019-04-11T06:40:46.796Z,26720.00
2019-04-11T06:41:46.771Z,26688.00
2019-04-11T06:42:47.669Z,26528.00
2019-04-11T06:43:47.868Z,26720.00
2019-04-11T06:44:46.696Z,27232.00
2019-04-11T06:45:46.667Z,28064.00
2019-04-11T06:46:52.372Z,28992.00
2019-04-11T06:47:47.179Z,29728.00
2019-04-11T06:48:47.676Z,30112.00
2019-04-11T06:49:46.764Z,31328.00
2019-04-11T06:50:47.192Z,31328.00
2019-04-11T06:51:46.515Z,30912.00
2019-04-11T06:52:46.500Z,29696.00
2019-04-11T06:53:46.466Z,29952.00
2019-04-11T06:54:47.479Z,31968.00
2019-04-11T06:55:46.834Z,28096.00
2019-04-11T06:56:47.484Z,26528.00
2019-04-11T06:57:46.365Z,30272.00
2019-04-11T06:58:46.342Z,33472.00
2019-04-11T06:59:46.317Z,34432.00
2019-04-11T07:00:47.445Z,33120.00
2019-04-11T07:01:47.496Z,33216.00
2019-04-11T07:02:46.615Z,35744.00
2019-04-11T07:03:46.925Z,37696.00
2019-04-11T07:04:46.385Z,36992.00
2019-04-11T07:05:46.852Z,33952.00
2019-04-11T07:06:46.141Z,33376.00
2019-04-11T07:07:46.178Z,35360.00
2019-04-11T07:08:46.938Z,37792.00
2019-04-11T07:09:47.037Z,39136.00
2019-04-11T07:10:46.746Z,39744.00
2019-04-11T07:11:46.017Z,39040.00
2019-04-11T07:12:47.066Z,37152.00
2019-04-11T07:13:45.969Z,35680.00
2019-04-11T07:14:45.945Z,35360.00
2019-04-11T07:15:46.431Z,36672.00
2019-04-11T07:16:46.828Z,37024.00
2019-04-11T07:17:45.995Z,36448.00
2019-04-11T07:18:46.492Z,36960.00
2019-04-11T07:19:45.920Z,39840.00
2019-04-11T07:20:45.897Z,41600.00
2019-04-11T07:21:46.165Z,40192.00
2019-04-11T07:22:46.636Z,39136.00
2019-04-11T07:23:46.912Z,41472.00
2019-04-11T07:24:45.707Z,46368.00
2019-04-11T07:25:45.681Z,48256.00
2019-04-11T07:26:45.902Z,44608.00
2019-04-11T07:27:45.636Z,42016.00
2019-04-11T07:28:45.908Z,42752.00
2019-04-11T07:29:46.467Z,45056.00
2019-04-11T07:30:45.562Z,42528.00
2019-04-11T07:31:46.260Z,40448.00
2019-04-11T07:32:45.516Z,38880.00
2019-04-11T07:33:45.505Z,40768.00
2019-04-11T07:34:45.767Z,43040.00
2019-04-11T07:35:45.448Z,44000.00
2019-04-11T07:36:46.233Z,43648.00
2019-04-11T07:37:47.128Z,45440.00
2019-04-11T07:38:46.460Z,44832.00
2019-04-11T07:39:45.350Z,42496.00
2019-04-11T07:40:45.487Z,41728.00
2019-04-11T07:41:45.578Z,42432.00
2019-04-11T07:42:46.718Z,41920.00
2019-04-11T07:43:45.255Z,41248.00
2019-04-11T07:44:45.254Z,42400.00
2019-04-11T07:45:45.212Z,44448.00
2019-04-11T07:46:45.184Z,46592.00
2019-04-11T07:47:46.074Z,49632.00
2019-04-11T07:48:45.137Z,54400.00
2019-04-11T07:49:45.315Z,59488.00
2019-04-11T07:50:45.093Z,61312.00
2019-04-11T07:51:45.119Z,53888.00
2019-04-11T07:52:45.044Z,47072.00
2019-04-11T07:53:45.944Z,44832.00
2019-04-11T07:54:45.614Z,51008.00
2019-04-11T07:55:44.972Z,61984.00
2019-04-11T07:56:44.950Z,66752.00
2019-04-11T07:57:44.930Z,64192.00
2019-04-11T07:58:45.745Z,57536.00
2019-04-11T07:59:44.879Z,54400.00
2019-04-11T08:00:49.400Z,54272.00
2019-04-11T08:01:44.834Z,61344.00
2019-04-11T08:02:45.580Z,71232.00
2019-04-11T08:03:44.791Z,75520.00
2019-04-11T08:04:45.172Z,72064.00
2019-04-11T08:05:44.742Z,65216.00
2019-04-11T08:06:45.678Z,57888.00
2019-04-11T08:07:44.916Z,52448.00
2019-04-11T08:08:44.674Z,50432.00
2019-04-11T08:09:44.652Z,52672.00
2019-04-11T08:10:45.734Z,59424.00
2019-04-11T08:11:44.607Z,52864.00
2019-04-11T08:12:45.581Z,68768.00
2019-04-11T08:13:45.009Z,45536.00
2019-04-11T08:14:44.628Z,17856.00
2019-04-11T08:15:44.513Z,61152.00
2019-04-11T08:16:44.913Z,35104.00
2019-04-11T08:17:44.613Z,23360.00
2019-04-11T08:18:45.339Z,19104.00
2019-04-11T08:19:44.423Z,17748.00
2019-04-11T08:20:45.631Z,66400.00
2019-04-11T08:21:44.376Z,59808.00
2019-04-11T08:22:45.480Z,52512.00
2019-04-11T08:23:44.328Z,46592.00
2019-04-11T08:24:44.908Z,20416.00
2019-04-11T08:25:45.243Z,17560.00
2019-04-11T08:26:44.428Z,15348.00
2019-04-11T08:27:54.692Z,15336.00
2019-04-11T08:28:45.498Z,46336.00
2019-04-11T08:29:44.387Z,14960.00
2019-04-11T08:30:44.159Z,16072.00
2019-04-11T08:31:44.519Z,17500.00
2019-04-11T08:32:44.299Z,24768.00
2019-04-11T08:33:44.082Z,38848.00
2019-04-11T08:34:44.059Z,28032.00
2019-04-11T08:35:44.110Z,80736.00
2019-04-11T08:36:44.226Z,78592.00
2019-04-11T08:37:43.983Z,25920.00
2019-04-11T08:38:44.739Z,73024.00
2019-04-11T08:39:44.999Z,17844.00
2019-04-11T08:40:45.082Z,17052.00
2019-04-11T08:41:44.087Z,16740.00
2019-04-11T08:42:43.856Z,17244.00
2019-04-11T08:43:43.832Z,17952.00
2019-04-11T08:44:43.878Z,81152.00
2019-04-11T08:45:44.451Z,82880.00
2019-04-11T08:46:44.750Z,73856.00
2019-04-11T08:47:47.586Z,19904.00
2019-04-11T08:48:44.122Z,19392.00
2019-04-11T08:49:43.741Z,56192.00
2019-04-11T08:50:44.725Z,24128.00
2019-04-11T08:51:43.627Z,21568.00
2019-04-11T08:52:44.401Z,22368.00
2019-04-11T08:53:44.715Z,21920.00
2019-04-11T08:54:43.838Z,20416.00
2019-04-11T08:55:51.969Z,19520.00
2019-04-11T08:56:43.498Z,18688.00
2019-04-11T08:57:44.500Z,17552.00
2019-04-11T08:58:43.446Z,17788.00
2019-04-11T08:59:44.054Z,18432.00
2019-04-11T09:00:43.393Z,18528.00
2019-04-11T09:01:44.313Z,20000.00
2019-04-11T09:02:43.340Z,17560.00
2019-04-11T09:03:44.078Z,16624.00
2019-04-11T09:04:43.297Z,16412.00
2019-04-11T09:05:43.260Z,17036.00
2019-04-11T09:06:43.238Z,42080.00
2019-04-11T09:07:43.545Z,72512.00
2019-04-11T09:08:43.178Z,76992.00
2019-04-11T09:09:43.255Z,82176.00
2019-04-11T09:10:44.073Z,21824.00
2019-04-11T09:11:43.200Z,19520.00
2019-04-11T09:12:43.073Z,19424.00
2019-04-11T09:13:44.019Z,19776.00
2019-04-11T09:14:44.306Z,20960.00
2019-04-11T09:15:43.268Z,24160.00
2019-04-11T09:16:42.966Z,22208.00
2019-04-11T09:17:55.137Z,22752.00
2019-04-11T09:18:43.953Z,24064.00
2019-04-11T09:19:43.134Z,25536.00
2019-04-11T09:20:43.422Z,26912.00
2019-04-11T09:21:42.834Z,27872.00
2019-04-11T09:22:42.814Z,28096.00
2019-04-11T09:23:43.903Z,27616.00
2019-04-11T09:24:43.177Z,26848.00
2019-04-11T09:25:43.498Z,26176.00
2019-04-11T09:26:42.702Z,25536.00
2019-04-11T09:27:42.696Z,24640.00
2019-04-11T09:28:43.932Z,23648.00
2019-04-11T09:29:42.620Z,22688.00
2019-04-11T09:30:43.111Z,21600.00
2019-04-11T09:31:43.976Z,20416.00
2019-04-11T09:32:42.549Z,19680.00
2019-04-11T09:33:42.516Z,19616.00
2019-04-11T09:34:42.489Z,19872.00
2019-04-11T09:35:43.352Z,30976.00
2019-04-11T09:36:42.436Z,53088.00
2019-04-11T09:37:44.241Z,22112.00
2019-04-11T09:38:42.406Z,22304.00
2019-04-11T09:39:43.411Z,23328.00
2019-04-11T09:40:42.328Z,24416.00
2019-04-11T09:41:42.733Z,25632.00
2019-04-11T09:42:43.077Z,26912.00
2019-04-11T09:43:42.310Z,28128.00
2019-04-11T09:44:42.225Z,28896.00
2019-04-11T09:45:42.193Z,29824.00
2019-04-11T09:46:42.814Z,29824.00
2019-04-11T09:47:42.140Z,30720.00
2019-04-11T09:48:42.393Z,32320.00
2019-04-11T09:49:42.961Z,31648.00
2019-04-11T09:50:42.729Z,31264.00
2019-04-11T09:51:42.306Z,30720.00
2019-04-11T09:52:42.039Z,31840.00
2019-04-11T09:53:42.947Z,32128.00
2019-04-11T09:54:42.097Z,71328.00
2019-04-11T09:55:41.927Z,32992.00
2019-04-11T09:56:42.968Z,32704.00
2019-04-11T09:57:42.043Z,33952.00
2019-04-11T09:58:42.156Z,34496.00
2019-04-11T09:59:41.825Z,37856.00
2019-04-11T10:00:43.015Z,57856.00
2019-04-11T10:01:42.931Z,40544.00
2019-04-11T10:02:41.946Z,36864.00
2019-04-11T10:03:42.951Z,115552.00
2019-04-11T10:04:41.809Z,111936.00
2019-04-11T10:05:42.638Z,76672.00
2019-04-11T10:06:41.636Z,108160.00
2019-04-11T10:07:41.957Z,37600.00
2019-04-11T10:08:41.786Z,32192.00
2019-04-11T10:09:41.562Z,28992.00
2019-04-11T10:10:43.417Z,27296.00
2019-04-11T10:11:42.027Z,26112.00
2019-04-11T10:12:42.561Z,25312.00
2019-04-11T10:13:42.707Z,24832.00
2019-04-11T10:14:41.814Z,24608.00
2019-04-11T10:15:41.411Z,24608.00
2019-04-11T10:16:42.286Z,24832.00
2019-04-11T10:17:42.494Z,25280.00
2019-04-11T10:18:42.744Z,25952.00
2019-04-11T10:19:42.316Z,26816.00
2019-04-11T10:20:42.523Z,27616.00
2019-04-11T10:21:41.727Z,28736.00
2019-04-11T10:22:41.233Z,30016.00
2019-04-11T10:23:41.206Z,31232.00
2019-04-11T10:24:41.179Z,32512.00
2019-04-11T10:25:41.155Z,33920.00
2019-04-11T10:26:42.334Z,35264.00
2019-04-11T10:27:41.105Z,36192.00
2019-04-11T10:28:41.764Z,36960.00
2019-04-11T10:29:41.797Z,39392.00
2019-04-11T10:30:41.993Z,38816.00
2019-04-11T10:31:42.228Z,39648.00
2019-04-11T10:32:41.392Z,40960.00
2019-04-11T10:33:41.426Z,40864.00
2019-04-11T10:34:41.741Z,40896.00
2019-04-11T10:35:40.896Z,40640.00
2019-04-11T10:36:41.046Z,40128.00
2019-04-11T10:37:42.099Z,38368.00
2019-04-11T10:38:40.819Z,36416.00
2019-04-11T10:39:41.694Z,33824.00
2019-04-11T10:40:41.925Z,31712.00
2019-04-11T10:41:41.963Z,30336.00
2019-04-11T10:42:40.720Z,30048.00
2019-04-11T10:43:40.690Z,26560.00
2019-04-11T10:44:40.665Z,25952.00
2019-04-11T10:45:40.640Z,25664.00
2019-04-11T10:46:41.686Z,25216.00
2019-04-11T10:47:40.870Z,24608.00
2019-04-11T10:48:44.818Z,23776.00
2019-04-11T10:49:40.536Z,23232.00
2019-04-11T10:50:40.514Z,23200.00
2019-04-11T10:51:40.826Z,23648.00
2019-04-11T10:52:40.462Z,24352.00
2019-04-11T10:53:41.528Z,25152.00
2019-04-11T10:54:40.814Z,26112.00
2019-04-11T10:55:40.383Z,26912.00
2019-04-11T10:56:41.177Z,27616.00
2019-04-11T10:57:40.426Z,28704.00
2019-04-11T10:58:40.708Z,29888.00
2019-04-11T10:59:40.796Z,31008.00
2019-04-11T11:00:40.252Z,31872.00
2019-04-11T11:01:40.249Z,32576.00
2019-04-11T11:02:40.199Z,33152.00
2019-04-11T11:03:40.174Z,34080.00
2019-04-11T11:04:41.010Z,34880.00
2019-04-11T11:05:40.208Z,35360.00
2019-04-11T11:06:40.093Z,35584.00
2019-04-11T11:07:40.574Z,35968.00
2019-04-11T11:08:40.042Z,36288.00
2019-04-11T11:09:40.016Z,36224.00
2019-04-11T11:10:39.991Z,35776.00
2019-04-11T11:11:40.852Z,35296.00
2019-04-11T11:12:39.942Z,34976.00
2019-04-11T11:13:40.767Z,34752.00
2019-04-11T11:14:39.888Z,34528.00
2019-04-11T11:15:39.959Z,34176.00
2019-04-11T11:16:42.860Z,33952.00
2019-04-11T11:18:00.956Z,33664.00
2019-04-11T11:19:07.542Z,33120.00
2019-04-11T11:19:50.114Z,32384.00
2019-04-11T11:20:47.690Z,31968.00
2019-04-11T11:21:39.946Z,32128.00
2019-04-11T11:22:41.511Z,32672.00
2019-04-11T11:23:40.738Z,33440.00
2019-04-11T11:24:40.613Z,34400.00
2019-04-11T11:25:44.444Z,35808.00
2019-04-11T11:26:39.575Z,36640.00
2019-04-11T11:27:39.546Z,37504.00
2019-04-11T11:28:39.528Z,38272.00
2019-04-11T11:29:40.394Z,39232.00
2019-04-11T11:30:39.915Z,40448.00
2019-04-11T11:31:40.815Z,41440.00
2019-04-11T11:32:39.419Z,42432.00
2019-04-11T11:33:40.540Z,43712.00
2019-04-11T11:34:39.381Z,45472.00
2019-04-11T11:35:41.021Z,45824.00
2019-04-11T11:36:39.600Z,74400.00
2019-04-11T11:37:39.689Z,49280.00
2019-04-11T11:38:39.261Z,49568.00
2019-04-11T11:39:39.482Z,50656.00
2019-04-11T11:40:41.642Z,48000.00
2019-04-11T11:41:39.184Z,47296.00
2019-04-11T11:42:39.158Z,47264.00
2019-04-11T11:43:39.211Z,47232.00
2019-04-11T11:44:39.208Z,47712.00
2019-04-11T11:45:39.082Z,46144.00
2019-04-11T11:46:39.057Z,44064.00
2019-04-11T11:47:41.215Z,42720.00
2019-04-11T11:48:39.664Z,41696.00
2019-04-11T11:49:48.984Z,40384.00
2019-04-11T11:50:39.214Z,39680.00
2019-04-11T11:51:38.927Z,38848.00
2019-04-11T11:52:39.373Z,38144.00
2019-04-11T11:53:38.875Z,37504.00
2019-04-11T11:54:39.796Z,36864.00
2019-04-11T11:55:38.825Z,36352.00
2019-04-11T11:56:38.798Z,35872.00
2019-04-11T11:57:39.228Z,35488.00
2019-04-11T11:58:38.747Z,35168.00
2019-04-11T11:59:38.721Z,35072.00
2019-04-11T12:00:38.933Z,35200.00
2019-04-11T12:01:43.040Z,35648.00
2019-04-11T12:02:39.003Z,36544.00
2019-04-11T12:03:40.494Z,38080.00
2019-04-11T12:04:39.332Z,40000.00
2019-04-11T12:05:39.119Z,41760.00
2019-04-11T12:06:38.862Z,43232.00
2019-04-11T12:07:39.367Z,44768.00
2019-04-11T12:08:39.185Z,46304.00
2019-04-11T12:09:38.488Z,56288.00
2019-04-11T12:10:39.505Z,57248.00
2019-04-11T12:11:38.409Z,55104.00
2019-04-11T12:12:38.382Z,90368.00
2019-04-11T12:13:40.581Z,99136.00
2019-04-11T12:14:39.925Z,45088.00
2019-04-11T12:15:39.243Z,42720.00
2019-04-11T12:16:38.281Z,40928.00
2019-04-11T12:17:38.254Z,38848.00
2019-04-11T12:18:44.991Z,36832.00
2019-04-11T12:19:47.692Z,33600.00